Terminal Aerodrome Forecast
Issued by NWS Twin Cities, MN

Home | Current Version | Previous Version | Text Only | Print | Product List | Glossary Off
Versions: 1 2 3 4 5 6 7 8 9 10 11 12 13 14 15 16

368
FTUS43 KMPX 240520
TAFEAU
TAF
KEAU 240520Z 2406/2506 02008KT P6SM VCSH BKN025 OVC060
     FM241000 02007KT P6SM OVC015
     FM241900 04007KT P6SM SCT020 OVC050
     FM250000 07004KT P6SM BKN050=

USA.gov is the U.S. government's official web portal to all federal, state and local government web resources and services.